Time;durP1;ratioP1;P1;durP2;ratioP2;P2;SDS_P1;SDS_P2;PMS_P1;PMS_P2;Temp;Humidity;BMP_temperature;BMP_pressure;BME280_temperature;BME280_humidity;BME280_pressure;Samples;Min_cycle;Max_cycle;Signal;HPM_P1;HPM_P2
2023/08/05 00:40:48;;;;;;;7.55;5.18;;;;;;;;;;5069030;28;20408;-48
2023/08/05 00:43:14;;;;;;;5.00;4.50;;;;;;;;;;5052369;28;20106;-49
2023/08/05 06:33:15;;;;;;;12.65;9.63;;;;;;;;;;5063474;28;20452;-48
2023/08/05 06:35:40;;;;;;;15.82;14.15;;;25.20;99.90;;;;;;5083018;28;20033;-48
2023/08/05 06:38:06;;;;;;;15.10;13.48;;;25.40;99.90;;;;;;5064691;28;20698;-47
2023/08/05 06:40:33;;;;;;;19.23;13.40;;;;;;;;;;5085260;28;20369;-48
2023/08/05 06:42:59;;;;;;;15.80;12.55;;;;;;;;;;5083064;28;20025;-49
2023/08/05 06:45:25;;;;;;;15.32;13.32;;;26.20;99.90;;;;;;5084364;28;20028;-49
2023/08/05 06:47:51;;;;;;;12.70;11.40;;;;;;;;;;5067498;28;20048;-49
2023/08/05 06:50:17;;;;;;;9.95;8.95;;;;;;;;;;5080863;28;20038;-49
2023/08/05 06:52:42;;;;;;;11.57;10.38;;;27.00;99.90;;;;;;5074129;28;20086;-48
2023/08/05 06:55:09;;;;;;;13.23;11.13;;;27.00;99.90;;;;;;5074497;28;20078;-49
2023/08/05 06:57:36;;;;;;;12.45;11.20;;;26.80;99.90;;;;;;5073135;28;20029;-49
2023/08/05 07:00:02;;;;;;;15.15;13.57;;;26.70;99.90;;;;;;5053310;28;20071;-49
2023/08/05 07:02:28;;;;;;;16.85;13.75;;;;;;;;;;5054434;28;20098;-49
2023/08/05 07:04:54;;;;;;;15.30;13.70;;;27.00;99.90;;;;;;5073564;28;20032;-49
2023/08/05 07:07:20;;;;;;;18.20;16.23;;;27.20;99.90;;;;;;5073436;28;20495;-49
2023/08/05 07:09:46;;;;;;;19.50;16.55;;;26.70;99.90;;;;;;5073894;28;20036;-49
2023/08/05 07:12:12;;;;;;;17.25;15.45;;;26.80;99.90;;;;;;5072896;28;20086;-49
2023/08/05 07:14:39;;;;;;;17.45;15.65;;;;;;;;;;5073291;28;20036;-49
2023/08/05 07:17:05;;;;;;;16.08;14.55;;;27.40;99.90;;;;;;5081931;28;20032;-50
2023/08/05 07:19:31;;;;;;;16.02;14.32;;;27.90;99.90;;;;;;5057852;28;20032;-49
2023/08/05 07:21:57;;;;;;;15.70;11.80;;;27.80;99.90;;;;;;5057487;28;20376;-49
2023/08/05 07:24:22;;;;;;;19.88;14.40;;;27.70;99.90;;;;;;5093451;28;20050;-49
2023/08/05 07:26:48;;;;;;;17.05;15.25;;;27.20;99.90;;;;;;5056026;28;20047;-49
2023/08/05 07:29:14;;;;;;;16.85;15.10;;;;;;;;;;5089681;28;20464;-49
2023/08/05 07:31:40;;;;;;;18.17;15.13;;;27.70;99.90;;;;;;5073247;28;20048;-49
2023/08/05 07:34:07;;;;;;;15.55;13.85;;;27.90;99.90;;;;;;5092457;28;20093;-49
2023/08/05 07:36:34;;;;;;;20.75;17.52;;;;;;;;;;5089918;28;20063;-49
2023/08/05 07:39:03;;;;;;;14.10;12.65;;;28.50;99.90;;;;;;5091457;28;20111;-49
2023/08/05 07:41:30;;;;;;;16.08;14.55;;;;;;;;;;5092671;28;20028;-49
2023/08/05 07:44:00;;;;;;;17.27;15.48;;;;;;;;;;5090785;28;20036;-49
2023/08/05 07:46:30;;;;;;;17.20;15.40;;;;;;;;;;5073225;28;20519;-49
2023/08/05 07:48:57;;;;;;;16.80;15.20;;;28.80;99.90;;;;;;5092956;28;20114;-49
2023/08/05 07:51:23;;;;;;;15.32;13.82;;;;;;;;;;5092292;28;20036;-49
2023/08/05 07:53:50;;;;;;;17.20;15.45;;;28.80;99.90;;;;;;5092789;28;20044;-49
2023/08/05 07:56:16;;;;;;;16.67;14.98;;;28.70;99.90;;;;;;5092961;28;20031;-49
2023/08/05 07:58:46;;;;;;;16.27;14.45;;;28.00;99.90;;;;;;5092828;28;20089;-49
2023/08/05 08:01:22;;;;;;;19.17;17.15;;;28.20;99.90;;;;;;5057426;28;20083;-49
2023/08/05 08:03:51;;;;;;;18.13;16.33;;;28.00;99.90;;;;;;5092864;28;20055;-49
2023/08/05 08:06:18;;;;;;;17.55;15.73;;;28.60;99.90;;;;;;5092325;28;20040;-49
2023/08/05 08:08:43;;;;;;;18.02;16.33;;;28.40;99.90;;;;;;5092831;28;20111;-49
2023/08/05 08:11:12;;;;;;;17.23;15.52;;;28.30;99.90;;;;;;5091711;28;20635;-48
2023/08/05 08:13:39;;;;;;;17.73;15.88;;;28.80;99.90;;;;;;5092555;28;20028;-49
2023/08/05 08:16:05;;;;;;;19.80;16.52;;;28.60;99.90;;;;;;5056739;28;20032;-49
2023/08/05 08:18:31;;;;;;;18.20;16.35;;;28.80;99.90;;;;;;5092026;28;20055;-49
2023/08/05 08:20:57;;;;;;;17.33;15.63;;;29.20;99.90;;;;;;5092360;28;20070;-49
2023/08/05 08:23:24;;;;;;;19.05;17.15;;;;;;;;;;5091830;28;20391;-49
2023/08/05 08:25:50;;;;;;;18.13;15.93;;;30.20;99.90;;;;;;5092204;28;20471;-48
2023/08/05 08:28:16;;;;;;;17.70;15.48;;;;;;;;;;5092138;28;20035;-49
2023/08/05 08:30:54;;;;;;;19.30;17.38;;;28.80;99.90;;;;;;5083583;28;20461;-49
2023/08/05 08:33:20;;;;;;;19.92;17.88;;;29.20;99.90;;;;;;5080833;28;20086;-49
2023/08/05 08:35:46;;;;;;;21.17;17.95;;;29.70;99.90;;;;;;5028243;28;20040;-49
2023/08/05 08:38:11;;;;;;;21.55;19.42;;;29.80;99.90;;;;;;5063092;28;20100;-49
2023/08/05 08:40:38;;;;;;;21.08;18.98;;;;;;;;;;5061476;28;20048;-49
2023/08/05 08:43:04;;;;;;;21.33;18.65;;;;;;;;;;5061364;28;20040;-50
2023/08/05 08:45:33;;;;;;;17.60;15.20;;;;;;;;;;5082093;28;20024;-49
2023/08/05 08:48:02;;;;;;;20.10;17.77;;;29.50;99.90;;;;;;5079400;28;20035;-50
2023/08/05 08:50:29;;;;;;;19.95;17.88;;;29.30;99.90;;;;;;5084183;28;20040;-49
2023/08/05 08:52:57;;;;;;;20.45;17.75;;;29.60;99.90;;;;;;5092339;28;20059;-49
2023/08/05 08:55:25;;;;;;;19.60;17.50;;;30.20;99.90;;;;;;5073273;28;20075;-49
2023/08/05 08:57:51;;;;;;;18.13;16.23;;;30.00;99.90;;;;;;5073213;28;20036;-49
2023/08/05 09:00:17;;;;;;;20.65;18.48;;;;;;;;;;5073277;28;20046;-49
2023/08/05 09:02:43;;;;;;;19.27;17.27;;;;;;;;;;5091988;28;20045;-49
2023/08/05 09:05:10;;;;;;;17.95;16.10;;;;;;;;;;5091162;28;20101;-48
2023/08/05 09:07:37;;;;;;;19.25;16.73;;;30.60;99.90;;;;;;5091538;28;20082;-49
2023/08/05 09:10:06;;;;;;;18.52;16.73;;;;;;;;;;5091521;28;20437;-49
2023/08/05 09:12:33;;;;;;;17.35;15.55;;;;;;;;;;5055396;28;20044;-49
2023/08/05 09:14:59;;;;;;;17.73;16.02;;;31.10;99.90;;;;;;5072285;28;20540;-49
2023/08/05 09:17:26;;;;;;;17.38;15.70;;;;;;;;;;5091011;28;20040;-49
2023/08/05 09:19:52;;;;;;;16.67;15.10;;;32.80;99.90;;;;;;5091202;28;20487;-49
2023/08/05 09:22:18;;;;;;;18.45;16.55;;;33.00;99.90;;;;;;5085468;28;20055;-49
2023/08/05 09:24:44;;;;;;;17.42;15.73;;;32.70;99.90;;;;;;5018673;28;20049;-49
2023/08/05 09:27:09;;;;;;;18.00;16.10;;;32.80;99.90;;;;;;5070873;28;20047;-49
2023/08/05 09:29:36;;;;;;;17.33;15.52;;;32.60;99.90;;;;;;5035120;28;20040;-49
2023/08/05 09:32:04;;;;;;;18.33;16.42;;;32.50;99.90;;;;;;5070809;28;20480;-49
2023/08/05 09:34:45;;;;;;;17.65;16.05;;;31.80;99.90;;;;;;4953415;28;20459;-49
2023/08/05 09:37:13;;;;;;;17.23;15.43;;;31.60;99.90;;;;;;5070723;28;20561;-49
2023/08/05 09:39:45;;;;;;;18.77;16.92;;;32.00;99.90;;;;;;5051794;28;20112;-49
2023/08/05 09:42:23;;;;;;;20.13;17.85;;;32.30;99.90;;;;;;5050623;28;20052;-49
2023/08/05 09:44:57;;;;;;;17.30;15.63;;;32.40;99.90;;;;;;5031195;28;20052;-49
2023/08/05 09:47:27;;;;;;;16.67;14.98;;;31.40;99.90;;;;;;5051346;28;20427;-49
2023/08/05 09:49:54;;;;;;;17.33;15.63;;;31.20;99.90;;;;;;5054741;28;20067;-48
2023/08/05 09:52:23;;;;;;;17.58;15.88;;;31.70;99.90;;;;;;5071023;28;20499;-49
2023/08/05 09:55:13;;;;;;;18.73;16.80;;;32.40;99.90;;;;;;5052565;28;20049;-49
2023/08/05 09:57:39;;;;;;;18.45;16.48;;;31.40;99.90;;;;;;5063729;28;20126;-50
2023/08/05 10:00:08;;;;;;;17.65;16.00;;;;;;;;;;5060073;28;20036;-49
2023/08/05 10:02:35;;;;;;;16.85;15.05;;;;;;;;;;5038140;28;20045;-50
2023/08/05 10:05:02;;;;;;;19.08;17.17;;;;;;;;;;5039443;28;20041;-50
2023/08/05 10:07:28;;;;;;;19.42;17.60;;;;;;;;;;5037917;28;20124;-49
2023/08/05 10:09:54;;;;;;;17.52;15.82;;;;;;;;;;5038082;28;20059;-50
2023/08/05 10:12:22;;;;;;;17.52;15.73;;;;;;;;;;4997916;28;20049;-51
2023/08/05 10:14:49;;;;;;;17.83;16.02;;;;;;;;;;5037903;28;20041;-50
2023/08/05 10:17:18;;;;;;;18.63;16.92;;;;;;;;;;5038111;28;20044;-49
2023/08/05 10:19:50;;;;;;;17.35;15.65;;;;;;;;;;5039434;28;20025;-49
2023/08/05 10:22:21;;;;;;;19.42;16.60;;;;;;;;;;5038617;28;20068;-49
2023/08/05 10:25:00;;;;;;;16.83;15.23;;;;;;;;;;4999336;28;20056;-49
2023/08/05 10:27:38;;;;;;;18.42;16.52;;;;;;;;;;5048785;28;20488;-49
2023/08/05 10:30:07;;;;;;;19.85;17.77;;;;;;;;;;5048709;28;20450;-49
2023/08/05 10:32:35;;;;;;;17.38;15.77;;;;;;;;;;5046276;28;20046;-49
2023/08/05 10:35:20;;;;;;;18.42;16.55;;;;;;;;;;5051896;28;20435;-50
2023/08/05 10:37:49;;;;;;;19.17;17.35;;;;;;;;;;5054765;28;20029;-49
2023/08/05 10:40:40;;;;;;;18.13;16.42;;;33.60;99.90;;;;;;5054970;28;20044;-50
2023/08/05 10:43:06;;;;;;;21.23;16.60;;;33.80;99.90;;;;;;5054380;28;20476;-50
2023/08/05 10:45:40;;;;;;;18.23;15.70;;;34.20;99.90;;;;;;5032182;28;20361;-51
2023/08/05 10:48:13;;;;;;;18.35;16.35;;;34.00;99.90;;;;;;4999517;28;20057;-50
2023/08/05 10:50:41;;;;;;;21.40;19.30;;;34.20;99.90;;;;;;4999785;28;20073;-49
2023/08/05 10:53:10;;;;;;;18.75;15.85;;;34.60;99.90;;;;;;5032011;28;20050;-49
2023/08/05 10:55:49;;;;;;;16.65;14.57;;;;;;;;;;4982734;28;20073;-50
2023/08/05 10:58:20;;;;;;;17.92;15.63;;;34.90;99.90;;;;;;4998875;28;20045;-49
2023/08/05 11:01:02;;;;;;;16.90;15.13;;;34.90;99.90;;;;;;5032093;28;20037;-48
2023/08/05 11:03:33;;;;;;;28.30;21.80;;;34.90;99.90;;;;;;5032086;28;20040;-49
2023/08/05 11:06:03;;;;;;;22.50;17.90;;;34.80;99.90;;;;;;5031986;28;20148;-51
2023/08/05 11:08:31;;;;;;;22.25;19.88;;;34.50;99.90;;;;;;5032056;28;20079;-48
2023/08/05 11:10:59;;;;;;;22.13;18.50;;;34.10;99.90;;;;;;5031777;28;20045;-49
2023/08/05 11:13:25;;;;;;;29.65;24.13;;;34.00;99.90;;;;;;5031711;28;20041;-49
2023/08/05 11:16:14;;;;;;;16.48;13.20;;;33.60;99.90;;;;;;5036381;28;20052;-50
2023/08/05 11:18:42;;;;;;;59.45;41.35;;;33.30;99.90;;;;;;5054013;28;20051;-48
2023/08/05 11:21:17;;;;;;;122.13;66.95;;;32.80;99.90;;;;;;5053862;28;20036;-48
2023/08/05 11:23:45;;;;;;;16.23;14.60;;;;;;;;;;4992204;28;20133;-50
2023/08/05 11:26:12;;;;;;;14.65;13.15;;;;;;;;;;4991942;28;20054;-48
2023/08/05 11:28:47;;;;;;;17.60;14.18;;;31.60;99.90;;;;;;4991991;28;20534;-47
2023/08/05 11:31:23;;;;;;;30.55;22.45;;;31.30;99.90;;;;;;4992062;28;20030;-48
2023/08/05 11:33:49;;;;;;;24.08;18.20;;;;;;;;;;4959347;28;20089;-48
2023/08/05 11:36:15;;;;;;;19.35;11.80;;;;;;;;;;4975560;28;20125;-48
2023/08/05 11:38:42;;;;;;;21.45;11.98;;;;;;;;;;4959547;28;20417;-50
2023/08/05 11:41:08;;;;;;;18.35;11.75;;;;;;;;;;5000900;28;20038;-50
2023/08/05 11:43:35;;;;;;;17.52;11.10;;;27.20;99.90;;;;;;5011465;28;20121;-47
2023/08/05 11:46:01;;;;;;;8.48;7.57;;;27.00;99.90;;;;;;5010034;28;20038;-51
2023/08/05 11:48:28;;;;;;;10.57;6.28;;;;;;;;;;5010796;28;20122;-47
2023/08/05 11:50:58;;;;;;;12.23;6.93;;;26.10;99.90;;;;;;5011340;28;20042;-51
2023/08/05 11:53:24;;;;;;;10.68;5.57;;;25.50;99.90;;;;;;5011254;28;20478;-48
2023/08/05 11:55:50;;;;;;;7.93;3.53;;;;;;;;;;5035590;28;20525;-48
2023/08/05 11:58:16;;;;;;;5.28;3.88;;;;;;;;;;5073006;28;20059;-48
2023/08/05 12:01:02;;;;;;;6.90;3.83;;;;;;;;;;5073059;28;20070;-48
2023/08/05 12:03:32;;;;;;;6.97;4.90;;;24.40;99.90;;;;;;5070070;28;20036;-48
2023/08/05 12:06:02;;;;;;;6.38;5.00;;;;;;;;;;5058652;28;20029;-48
2023/08/05 12:08:44;;;;;;;6.85;4.55;;;24.10;99.90;;;;;;5072478;28;20063;-48
2023/08/05 12:11:14;;;;;;;6.95;5.32;;;24.00;99.90;;;;;;5063554;28;20046;-49
2023/08/05 12:13:41;;;;;;;7.05;5.97;;;24.00;99.90;;;;;;5062368;28;20132;-49
2023/08/05 12:16:16;;;;;;;7.43;4.82;;;24.00;99.90;;;;;;5060118;28;20032;-48
2023/08/05 12:18:46;;;;;;;6.78;4.97;;;24.00;99.90;;;;;;5059177;28;20059;-49
2023/08/05 12:21:13;;;;;;;10.02;6.22;;;24.10;99.90;;;;;;5061994;28;20025;-48
2023/08/05 12:23:41;;;;;;;6.13;4.90;;;;;;;;;;5063442;28;20036;-48
2023/08/05 12:26:07;;;;;;;5.25;3.83;;;;;;;;;;5061782;28;20063;-49
2023/08/05 12:28:33;;;;;;;5.57;3.97;;;23.90;99.90;;;;;;5062094;28;20097;-49
2023/08/05 12:30:59;;;;;;;7.95;4.72;;;24.20;99.90;;;;;;5062921;28;20033;-50
2023/08/05 12:33:24;;;;;;;4.97;4.05;;;23.90;99.90;;;;;;5061047;28;20049;-48
2023/08/05 12:35:50;;;;;;;5.38;4.20;;;23.90;99.90;;;;;;5066740;28;20422;-49
2023/08/05 12:38:16;;;;;;;6.72;3.83;;;24.00;99.90;;;;;;5052354;28;20544;-49
2023/08/05 12:40:42;;;;;;;4.00;2.83;;;24.10;99.90;;;;;;5050248;28;20388;-49
2023/08/05 12:43:07;;;;;;;7.47;4.05;;;23.80;99.90;;;;;;5061374;28;20059;-49
2023/08/05 12:45:33;;;;;;;9.43;6.13;;;24.10;99.90;;;;;;5036149;28;20093;-48
2023/08/05 12:47:59;;;;;;;7.35;4.15;;;24.10;99.90;;;;;;5059886;28;20110;-50
2023/08/05 12:50:25;;;;;;;7.65;3.92;;;24.40;99.90;;;;;;5072439;28;20031;-48
2023/08/05 12:52:50;;;;;;;33.05;29.80;;;24.50;99.90;;;;;;5052928;28;20122;-52
2023/08/05 12:55:16;;;;;;;4.50;3.22;;;24.40;99.90;;;;;;5070509;28;20035;-49
2023/08/05 12:58:02;;;;;;;4.30;3.17;;;;;;;;;;5047616;28;20504;-48
2023/08/05 13:00:28;;;;;;;7.00;3.20;;;;;;;;;;5065462;28;20052;-50
2023/08/05 13:02:54;;;;;;;5.35;3.35;;;24.70;99.90;;;;;;5042586;28;20041;-49
2023/08/05 13:05:20;;;;;;;4.85;3.47;;;24.60;99.90;;;;;;5031109;28;20044;-50
2023/08/05 13:07:45;;;;;;;9.52;5.07;;;24.60;99.90;;;;;;5048734;28;20927;-49
2023/08/05 13:10:11;;;;;;;6.30;3.58;;;24.60;99.90;;;;;;5029317;28;20504;-50
2023/08/05 13:12:37;;;;;;;4.30;3.22;;;24.70;99.90;;;;;;5031759;28;20098;-49
2023/08/05 13:15:03;;;;;;;13.00;3.42;;;24.70;99.90;;;;;;5047868;28;20362;-47
2023/08/05 13:17:28;;;;;;;4.78;3.22;;;24.60;99.90;;;;;;5047927;28;20033;-51
2023/08/05 13:19:54;;;;;;;3.50;3.08;;;24.40;99.90;;;;;;5035703;28;20401;-50
2023/08/05 13:22:20;;;;;;;14.55;3.90;;;24.40;99.90;;;;;;5014035;28;20500;-50
2023/08/05 13:24:45;;;;;;;6.35;4.10;;;24.30;99.90;;;;;;5037235;28;20451;-54
2023/08/05 13:27:12;;;;;;;14.02;5.20;;;24.30;99.90;;;;;;5038709;28;20025;-54
2023/08/05 13:29:37;;;;;;;6.15;4.90;;;24.40;99.90;;;;;;5061601;28;20511;-53
2023/08/05 13:32:03;;;;;;;94.15;85.18;;;24.40;99.90;;;;;;5051824;28;20060;-52
2023/08/05 13:34:29;;;;;;;6.50;4.60;;;24.40;99.90;;;;;;5036482;28;20407;-52
2023/08/05 13:36:55;;;;;;;9.55;4.85;;;24.50;99.90;;;;;;5071659;28;20033;-52
2023/08/05 13:39:22;;;;;;;7.00;4.55;;;24.60;99.90;;;;;;5071279;28;20032;-49
2023/08/05 13:41:49;;;;;;;13.48;6.90;;;24.60;99.90;;;;;;5060372;28;20028;-50
2023/08/05 13:44:14;;;;;;;12.38;7.47;;;24.50;99.90;;;;;;5056089;28;20051;-54
2023/08/05 13:46:40;;;;;;;9.25;4.82;;;24.50;99.90;;;;;;5034917;28;20045;-50
2023/08/05 13:49:06;;;;;;;4.38;3.80;;;24.60;99.90;;;;;;4995992;28;20555;-49
2023/08/05 13:51:32;;;;;;;4.05;3.30;;;24.40;99.90;;;;;;5031161;28;20049;-51
2023/08/05 13:53:58;;;;;;;6.45;4.03;;;24.40;99.90;;;;;;4999456;28;20513;-49
2023/08/05 13:56:25;;;;;;;10.65;5.78;;;24.60;99.90;;;;;;5048877;28;20037;-49
2023/08/05 13:58:52;;;;;;;12.10;6.68;;;24.80;99.90;;;;;;5049043;28;20057;-47
2023/08/05 14:01:18;;;;;;;18.35;8.68;;;24.40;99.90;;;;;;5048796;28;20600;-47
2023/08/05 14:03:43;;;;;;;6.28;3.78;;;24.40;99.90;;;;;;5049010;28;20170;-49
2023/08/05 14:06:09;;;;;;;6.22;4.43;;;24.40;99.90;;;;;;5048381;28;20037;-50
2023/08/05 14:08:35;;;;;;;7.55;5.28;;;24.20;99.90;;;;;;5049551;28;20036;-49
2023/08/05 14:11:01;;;;;;;5.53;3.33;;;24.20;99.90;;;;;;5002924;28;20041;-49
2023/08/05 14:13:27;;;;;;;5.07;3.15;;;;;;;;;;5045049;28;20619;-49
2023/08/05 14:15:53;;;;;;;6.40;4.18;;;;;;;;;;5052247;28;20032;-50
2023/08/05 14:18:22;;;;;;;18.08;14.25;;;;;;;;;;5069821;28;20060;-48
2023/08/05 14:20:49;;;;;;;6.70;4.28;;;23.60;99.90;;;;;;5070026;28;20040;-52
2023/08/05 14:23:15;;;;;;;4.38;3.40;;;23.70;99.90;;;;;;5027301;28;20067;-47
2023/08/05 14:25:44;;;;;;;7.15;3.58;;;24.00;99.90;;;;;;5074077;28;20055;-49
2023/08/05 14:28:11;;;;;;;5.43;3.70;;;24.20;99.90;;;;;;5074991;28;20028;-52
2023/08/05 14:30:38;;;;;;;6.13;3.92;;;;;;;;;;5074610;28;20111;-49
2023/08/05 14:33:07;;;;;;;3.55;2.80;;;24.30;99.90;;;;;;5074209;28;20049;-52
2023/08/05 14:35:34;;;;;;;4.78;2.80;;;24.20;99.90;;;;;;5074297;28;20050;-50
2023/08/05 14:38:00;;;;;;;5.63;3.58;;;24.30;99.90;;;;;;5001882;28;20492;-49
2023/08/05 14:40:36;;;;;;;4.25;2.45;;;24.20;99.90;;;;;;5052127;28;20037;-49
2023/08/05 14:43:03;;;;;;;5.55;2.90;;;24.30;99.90;;;;;;5051577;28;20052;-52
2023/08/05 14:45:29;;;;;;;6.63;4.68;;;;;;;;;;5035172;28;20448;-46
2023/08/05 14:47:56;;;;;;;5.28;3.50;;;;;;;;;;5051969;28;20033;-52
2023/08/05 14:50:22;;;;;;;4.25;3.50;;;;;;;;;;5051811;28;20504;-49
2023/08/05 14:52:48;;;;;;;6.25;3.58;;;24.80;99.90;;;;;;5051879;28;20061;-49
2023/08/05 14:55:14;;;;;;;7.00;3.95;;;;;;;;;;5051435;28;20055;-49
2023/08/05 14:57:40;;;;;;;5.18;3.08;;;24.90;99.90;;;;;;5034253;28;20047;-48
2023/08/05 15:00:07;;;;;;;4.05;2.97;;;;;;;;;;5034335;28;20619;-50
2023/08/05 15:02:33;;;;;;;4.60;3.38;;;;;;;;;;5034437;28;20040;-50
2023/08/05 15:04:59;;;;;;;10.75;4.00;;;;;;;;;;5048583;28;20063;-47
2023/08/05 15:07:25;;;;;;;6.03;3.42;;;;;;;;;;5051095;28;20036;-48
2023/08/05 15:09:51;;;;;;;6.75;3.47;;;;;;;;;;5071200;28;20525;-49
2023/08/05 15:12:17;;;;;;;8.85;4.28;;;25.30;99.90;;;;;;5074279;28;20041;-48
2023/08/05 15:14:42;;;;;;;7.80;2.85;;;25.40;99.90;;;;;;5074292;28;20082;-51
2023/08/05 15:17:09;;;;;;;4.97;3.47;;;25.50;99.90;;;;;;5057310;28;20021;-51
2023/08/05 15:19:35;;;;;;;6.75;3.75;;;25.40;99.90;;;;;;5014777;28;20055;-51
2023/08/05 15:22:01;;;;;;;9.60;3.58;;;25.20;99.90;;;;;;5053265;28;20601;-51
2023/08/05 15:24:26;;;;;;;4.35;2.80;;;25.00;99.90;;;;;;5071357;28;20037;-47
2023/08/05 15:26:52;;;;;;;5.43;3.35;;;25.00;99.90;;;;;;5073588;28;20078;-48
2023/08/05 15:29:18;;;;;;;5.05;3.55;;;25.20;99.90;;;;;;5073754;28;20024;-48
2023/08/05 15:31:44;;;;;;;7.97;3.45;;;25.10;99.90;;;;;;5074198;28;20115;-48
2023/08/05 15:34:10;;;;;;;3.95;3.15;;;25.10;99.90;;;;;;5073669;28;20502;-49
2023/08/05 15:36:35;;;;;;;4.80;3.35;;;25.00;99.90;;;;;;5073542;28;20036;-49
2023/08/05 15:39:01;;;;;;;5.55;3.90;;;24.90;99.90;;;;;;5050524;28;20033;-48
2023/08/05 15:41:27;;;;;;;6.97;4.28;;;;;;;;;;5073686;28;20472;-47
2023/08/05 15:43:53;;;;;;;6.15;3.70;;;;;;;;;;5074108;28;20028;-51
2023/08/05 15:46:19;;;;;;;5.22;3.13;;;;;;;;;;5038237;28;20117;-49
2023/08/05 15:48:45;;;;;;;3.50;3.05;;;;;;;;;;5073683;28;20032;-50
2023/08/05 15:51:11;;;;;;;4.88;3.70;;;;;;;;;;5073269;28;20032;-46
2023/08/05 15:53:38;;;;;;;6.95;3.85;;;;;;;;;;5073662;28;20047;-49
2023/08/05 15:56:04;;;;;;;5.20;3.25;;;;;;;;;;5072894;28;20029;-50
2023/08/05 15:58:30;;;;;;;4.55;3.72;;;;;;;;;;5053671;28;20039;-46
2023/08/05 16:01:04;;;;;;;5.78;3.50;;;;;;;;;;5053616;28;20040;-50
2023/08/05 16:03:30;;;;;;;5.60;3.63;;;;;;;;;;5053369;28;20037;-49
2023/08/05 16:06:03;;;;;;;5.68;3.55;;;;;;;;;;5053510;28;20086;-49
2023/08/05 16:08:29;;;;;;;5.78;4.53;;;;;;;;;;5072136;28;20115;-51
2023/08/05 16:11:13;;;;;;;7.75;4.05;;;;;;;;;;5072476;28;20078;-47
2023/08/05 16:13:40;;;;;;;7.53;4.55;;;;;;;;;;5068350;28;20056;-55
2023/08/05 16:16:07;;;;;;;5.40;3.70;;;;;;;;;;5062084;28;20050;-52
2023/08/05 16:18:33;;;;;;;6.93;4.90;;;;;;;;;;5070981;28;20032;-54
2023/08/05 16:21:08;;;;;;;8.73;4.30;;;;;;;;;;5053221;28;20071;-52
2023/08/05 16:23:34;;;;;;;4.78;3.65;;;;;;;;;;5071940;28;20028;-50
2023/08/05 16:26:00;;;;;;;4.65;3.50;;;;;;;;;;5052883;28;20044;-52
2023/08/05 16:28:26;;;;;;;4.80;3.38;;;;;;;;;;5071788;28;20090;-53
2023/08/05 16:30:52;;;;;;;4.75;3.50;;;;;;;;;;5070377;28;20055;-50
2023/08/05 16:33:18;;;;;;;8.15;4.15;;;;;;;;;;5069979;28;20094;-50
2023/08/05 16:35:44;;;;;;;5.28;3.25;;;;;;;;;;5071242;28;20032;-50
2023/08/05 16:38:10;;;;;;;5.07;3.40;;;24.00;99.90;;;;;;5049559;28;20119;-52
2023/08/05 16:40:36;;;;;;;5.93;3.50;;;24.20;99.90;;;;;;5069671;28;20494;-53
2023/08/05 16:43:02;;;;;;;4.07;3.20;;;24.30;99.90;;;;;;5009579;28;20032;-52
2023/08/05 16:45:27;;;;;;;5.82;3.28;;;24.20;99.90;;;;;;5048068;28;20136;-50
2023/08/05 16:47:53;;;;;;;4.45;3.28;;;24.00;99.90;;;;;;5048788;28;20491;-52
2023/08/05 16:50:19;;;;;;;8.80;3.90;;;;;;;;;;5015602;28;20094;-50
2023/08/05 16:52:45;;;;;;;4.47;3.10;;;;;;;;;;5015778;28;20150;-50
2023/08/05 16:55:11;;;;;;;4.50;2.92;;;23.80;99.90;;;;;;5048640;28;20092;-50
2023/08/05 16:57:37;;;;;;;5.95;3.28;;;23.30;99.90;;;;;;5048744;28;20040;-49
2023/08/05 17:00:03;;;;;;;6.03;3.40;;;23.40;99.90;;;;;;5048660;28;20025;-50
2023/08/05 17:02:50;;;;;;;6.00;3.08;;;;;;;;;;4963355;28;20077;-52
2023/08/05 17:05:16;;;;;;;6.88;2.90;;;23.20;99.90;;;;;;4971073;28;20040;-53
2023/08/05 17:07:43;;;;;;;3.58;3.08;;;23.30;99.90;;;;;;5003545;28;20514;-52
2023/08/05 17:10:09;;;;;;;4.82;2.95;;;;;;;;;;4989353;28;20194;-52
2023/08/05 17:12:36;;;;;;;8.20;6.15;;;;;;;;;;4989030;28;20038;-53
2023/08/05 17:15:02;;;;;;;29.23;26.38;;;22.90;99.90;;;;;;4989296;28;20034;-50
2023/08/05 17:17:27;;;;;;;6.10;3.38;;;23.00;99.90;;;;;;4975645;28;20116;-49
2023/08/05 17:19:53;;;;;;;4.07;3.10;;;23.30;99.90;;;;;;5034163;28;20032;-51
2023/08/05 17:22:21;;;;;;;13.05;8.45;;;23.10;99.90;;;;;;5015110;28;20404;-52
2023/08/05 17:24:47;;;;;;;10.93;9.65;;;22.90;99.90;;;;;;5048534;28;20041;-50
2023/08/05 17:27:13;;;;;;;6.90;4.40;;;22.80;99.90;;;;;;5048311;28;20058;-49
2023/08/05 17:29:39;;;;;;;8.43;3.75;;;22.70;99.90;;;;;;5048312;28;20559;-53
2023/08/05 17:32:05;;;;;;;6.82;4.43;;;22.90;99.90;;;;;;5014972;28;20043;-53
2023/08/05 17:34:30;;;;;;;55.75;49.88;;;22.60;99.90;;;;;;4965190;28;20068;-52
2023/08/05 17:36:57;;;;;;;5.00;3.45;;;;;;;;;;5051783;28;20036;-52
2023/08/05 17:39:24;;;;;;;7.78;3.00;;;;;;;;;;5071073;28;20078;-55
2023/08/05 17:41:50;;;;;;;3.78;3.00;;;;;;;;;;5070969;28;20056;-56
2023/08/05 17:44:16;;;;;;;9.95;3.63;;;22.00;99.90;;;;;;5071031;28;20101;-52
2023/08/05 17:46:42;;;;;;;5.43;3.40;;;;;;;;;;5052732;28;20102;-50
2023/08/05 17:49:08;;;;;;;5.90;3.13;;;22.10;99.90;;;;;;5052800;28;20041;-52
2023/08/05 17:51:34;;;;;;;4.57;3.17;;;22.10;99.90;;;;;;5071715;28;20460;-49
2023/08/05 17:54:01;;;;;;;6.45;3.45;;;22.00;99.90;;;;;;5071848;28;20079;-50
2023/08/05 17:56:49;;;;;;;4.68;3.33;;;;;;;;;;5071668;28;20024;-48
2023/08/05 17:59:17;;;;;;;5.78;4.13;;;21.90;99.90;;;;;;5028659;28;20037;-49
2023/08/05 18:01:43;;;;;;;8.82;4.20;;;22.10;99.90;;;;;;4995674;28;20033;-49
2023/08/05 18:04:10;;;;;;;6.28;3.80;;;22.30;99.90;;;;;;5029266;28;20033;-49
2023/08/05 18:06:36;;;;;;;5.88;3.42;;;22.40;99.90;;;;;;5029245;28;20036;-49
2023/08/05 18:09:03;;;;;;;6.57;3.35;;;22.40;99.90;;;;;;4979867;28;20068;-48
2023/08/05 18:11:28;;;;;;;4.55;3.22;;;22.50;99.90;;;;;;5012201;28;20072;-48
2023/08/05 18:13:54;;;;;;;4.28;3.47;;;22.20;99.90;;;;;;5029005;28;20069;-50
2023/08/05 18:16:21;;;;;;;7.53;3.55;;;22.00;99.90;;;;;;5012474;28;20037;-50
2023/08/05 18:18:47;;;;;;;4.95;3.22;;;21.90;99.90;;;;;;5029055;28;20124;-52
2023/08/05 18:21:12;;;;;;;6.35;3.72;;;22.00;99.90;;;;;;5029019;28;20108;-51
2023/08/05 18:23:38;;;;;;;5.18;2.85;;;21.80;99.90;;;;;;4996129;28;20029;-53
2023/08/05 18:26:04;;;;;;;4.65;3.40;;;;;;;;;;5029078;28;20438;-50
2023/08/05 18:28:30;;;;;;;5.40;3.90;;;;;;;;;;4996105;28;20040;-51
2023/08/05 18:30:56;;;;;;;10.07;4.10;;;21.80;99.90;;;;;;4998509;28;20468;-52
2023/08/05 18:33:22;;;;;;;5.20;3.45;;;21.80;99.90;;;;;;5070862;28;20055;-52
2023/08/05 18:35:48;;;;;;;8.40;3.70;;;21.50;99.90;;;;;;5068989;28;20025;-50
2023/08/05 18:38:17;;;;;;;6.97;5.18;;;21.60;99.90;;;;;;5069827;28;20023;-50
2023/08/05 18:40:43;;;;;;;6.78;4.38;;;21.40;99.90;;;;;;5049311;28;20135;-50
2023/08/05 18:43:09;;;;;;;4.68;3.75;;;21.70;99.90;;;;;;5070924;28;20040;-53
2023/08/05 18:45:35;;;;;;;10.60;4.00;;;21.90;99.90;;;;;;5071537;28;20021;-52
2023/08/05 18:48:02;;;;;;;7.47;4.22;;;21.80;99.90;;;;;;5071175;28;20033;-51
2023/08/05 18:50:29;;;;;;;6.35;4.03;;;21.80;99.90;;;;;;5052640;28;20041;-49
2023/08/05 18:52:55;;;;;;;12.00;4.22;;;21.90;99.90;;;;;;5071357;28;20494;-52
2023/08/05 18:55:21;;;;;;;8.25;3.90;;;21.80;99.90;;;;;;5071457;28;20119;-54
2023/08/05 18:57:46;;;;;;;4.82;4.22;;;21.80;99.90;;;;;;5074609;28;20024;-53
2023/08/05 19:00:12;;;;;;;6.30;4.15;;;21.70;99.90;;;;;;5074356;28;20028;-56
2023/08/05 19:02:38;;;;;;;7.63;4.22;;;21.60;99.90;;;;;;5055712;28;20373;-56
2023/08/05 19:05:06;;;;;;;5.68;3.80;;;21.50;99.90;;;;;;5055566;28;20130;-53
2023/08/05 19:07:31;;;;;;;5.55;4.47;;;21.60;99.90;;;;;;5055805;28;20048;-52
2023/08/05 19:09:58;;;;;;;8.98;4.90;;;21.30;99.90;;;;;;5073911;28;20020;-53
2023/08/05 19:12:23;;;;;;;5.15;3.58;;;21.20;99.90;;;;;;5031117;28;20045;-49
2023/08/05 19:14:49;;;;;;;6.80;5.13;;;21.00;99.90;;;;;;5028528;28;20036;-50
2023/08/05 19:17:15;;;;;;;15.02;9.93;;;21.00;99.90;;;;;;5031418;28;20033;-52
2023/08/05 19:19:41;;;;;;;10.38;8.50;;;21.30;99.90;;;;;;5014921;28;20049;-52
2023/08/05 19:22:07;;;;;;;37.30;33.55;;;21.30;99.90;;;;;;5031732;28;20156;-52
2023/08/05 19:24:33;;;;;;;11.88;7.82;;;21.50;99.90;;;;;;5031901;28;20108;-50
2023/08/05 19:26:59;;;;;;;6.50;4.22;;;21.70;99.90;;;;;;5031620;28;20049;-52
2023/08/05 19:29:27;;;;;;;6.63;3.58;;;21.80;99.90;;;;;;5031875;28;20493;-52
2023/08/05 19:31:53;;;;;;;6.13;4.07;;;21.50;99.90;;;;;;5031640;28;20037;-54
2023/08/05 19:34:19;;;;;;;6.70;4.45;;;21.70;99.90;;;;;;5031318;28;20064;-50
2023/08/05 19:36:45;;;;;;;8.73;4.63;;;21.70;99.90;;;;;;5015074;28;20048;-52
2023/08/05 19:39:11;;;;;;;7.35;4.60;;;21.60;99.90;;;;;;5030583;28;20116;-50
2023/08/05 19:41:37;;;;;;;6.10;4.38;;;;;;;;;;4971085;28;20481;-49